Dottie Strait — WDC2892 — position and weather

sailwx.info

Track history (hours):
 
Tides and Currents Weather Stations Pressure Air Temp Water Temp Dewpoint Dewpoint Depression Visibility Wind Speed Wind Dir Waves Ship Positions

Dottie Strait

Owner: Western Rivers Boat Management, Inc., Paducah, KY. More information available from US FCC via Universal Licensing System and Coast Guard Vessel Documentation Center.

Last reported at 2017-Sep-21 02:14 UTC. Time now 2017-Sep-26 11:08 UTC.
Position N 38°54' W 090°31'.

Length 44 m; draft 2.5 m.

Type: Towing. MMSI: 367129620.

Date/timePositionNaut miles runAvg speedWind from/ knotsBaromVisibWave heightAir tempDewpointWater temp
2017-Sep-21 02:14N 38°54' W 090°31'1 4.6
2017-Sep-21 02:00N 38°55' W 090°30'2 4.6
2017-Sep-21 01:30N 38°57' W 090°28'2 4.9
2017-Sep-21 01:00N 38°58' W 090°25'3 5.1
2017-Sep-21 00:30N 38°57' W 090°22'3 5.3
2017-Sep-21 00:00N 38°56' W 090°19'  
2017-Sep-18 18:45N 38°52' W 090°09'1 2.5
2017-Sep-18 18:17N 38°53' W 090°11'2 6.2
2017-Sep-18 18:01N 38°54' W 090°12'3 6.3
2017-Sep-18 17:28N 38°55' W 090°16'3 6.2
2017-Sep-18 17:01N 38°56' W 090°20'3 6.3
2017-Sep-18 16:31N 38°58' W 090°24'3 5.7
2017-Sep-18 16:01N 38°58' W 090°27'2 4.8
2017-Sep-18 15:31N 38°58' W 090°30'2 4.3
2017-Sep-18 15:01N 38°58' W 090°33'0 0.0
2017-Sep-18 07:01N 38°58' W 090°33'0 6.1
2017-Sep-18 07:01N 38°58' W 090°33'2 4.8
2017-Sep-18 06:30N 38°58' W 090°30'1 2.9
2017-Sep-18 06:01N 38°58' W 090°28'0 0.0
2017-Sep-18 05:31N 38°58' W 090°28'0 0.1
2017-Sep-18 05:01N 38°58' W 090°28'2 3.2
2017-Sep-18 04:30N 38°58' W 090°26'1 2.3
2017-Sep-18 04:01N 38°58' W 090°25'2 4.2
2017-Sep-18 03:31N 38°57' W 090°27'3 5.0
2017-Sep-18 03:01N 38°56' W 090°30'3 5.3
2017-Sep-18 02:31N 38°54' W 090°31'  
Track history (hours):
 
Tides and Currents Weather Stations Pressure Air Temp Water Temp Dewpoint Dewpoint Depression Visibility Wind Speed Wind Dir Waves Ship Positions

Dottie Strait

Owner: Western Rivers Boat Management, Inc., Paducah, KY. More information available from US FCC via Universal Licensing System and Coast Guard Vessel Documentation Center.

Last reported at 2017-Sep-21 02:14 UTC. Time now 2017-Sep-26 11:08 UTC.
Position N 38°54' W 090°31'.

Length 44 m; draft 2.5 m.

Type: Towing. MMSI: 367129620.

Date/timePositionNaut miles runAvg speedWind from/ knotsBaromVisibWave heightAir tempDewpointWater temp
2017-Sep-21 02:14N 38°54' W 090°31'1 4.6
2017-Sep-21 02:00N 38°55' W 090°30'2 4.6
2017-Sep-21 01:30N 38°57' W 090°28'2 4.9
2017-Sep-21 01:00N 38°58' W 090°25'3 5.1
2017-Sep-21 00:30N 38°57' W 090°22'3 5.3
2017-Sep-21 00:00N 38°56' W 090°19'  
2017-Sep-18 18:45N 38°52' W 090°09'1 2.5
2017-Sep-18 18:17N 38°53' W 090°11'2 6.2
2017-Sep-18 18:01N 38°54' W 090°12'3 6.3
2017-Sep-18 17:28N 38°55' W 090°16'3 6.2
2017-Sep-18 17:01N 38°56' W 090°20'3 6.3
2017-Sep-18 16:31N 38°58' W 090°24'3 5.7
2017-Sep-18 16:01N 38°58' W 090°27'2 4.8
2017-Sep-18 15:31N 38°58' W 090°30'2 4.3
2017-Sep-18 15:01N 38°58' W 090°33'0 0.0
2017-Sep-18 07:01N 38°58' W 090°33'0 6.1
2017-Sep-18 07:01N 38°58' W 090°33'2 4.8
2017-Sep-18 06:30N 38°58' W 090°30'1 2.9
2017-Sep-18 06:01N 38°58' W 090°28'0 0.0
2017-Sep-18 05:31N 38°58' W 090°28'0 0.1
2017-Sep-18 05:01N 38°58' W 090°28'2 3.2
2017-Sep-18 04:30N 38°58' W 090°26'1 2.3
2017-Sep-18 04:01N 38°58' W 090°25'2 4.2
2017-Sep-18 03:31N 38°57' W 090°27'3 5.0
2017-Sep-18 03:01N 38°56' W 090°30'3 5.3
2017-Sep-18 02:31N 38°54' W 090°31'  

Dump ship's entire track history